sensor_id;sensor_type;location;lat;lon;timestamp;pressure;altitude;pressure_sealevel;temperature;humidity
33496;BME280;19836;55.812;37.560;2022-08-16T08:15:16;100214.47;;;27.09;40.11
33496;BME280;19836;55.812;37.560;2022-08-16T08:17:44;100221.13;;;27.27;39.71
33496;BME280;19836;55.812;37.560;2022-08-16T08:20:17;100222.47;;;27.42;38.94
33496;BME280;19836;55.812;37.560;2022-08-16T08:22:45;100219.72;;;27.52;38.22
33496;BME280;19836;55.812;37.560;2022-08-16T08:25:12;100218.00;;;27.60;37.64
33496;BME280;19836;55.812;37.560;2022-08-16T08:27:39;100223.25;;;27.73;37.75
33496;BME280;19836;55.812;37.560;2022-08-16T08:30:05;100217.66;;;27.84;37.83
33496;BME280;19836;55.812;37.560;2022-08-16T08:32:34;100215.47;;;27.87;37.36
33496;BME280;19836;55.812;37.560;2022-08-16T08:35:04;100213.56;;;27.88;37.05
33496;BME280;19836;55.812;37.560;2022-08-16T08:37:34;100212.84;;;27.95;37.04
33496;BME280;19836;55.812;37.560;2022-08-16T08:40:01;100208.06;;;28.07;36.88
33496;BME280;19836;55.812;37.560;2022-08-16T08:42:28;100212.59;;;28.17;36.92
33496;BME280;19836;55.812;37.560;2022-08-16T08:44:54;100208.81;;;28.18;36.71
33496;BME280;19836;55.812;37.560;2022-08-16T08:47:21;100208.81;;;28.18;36.44
33496;BME280;19836;55.812;37.560;2022-08-16T08:49:47;100196.75;;;28.29;36.79
33496;BME280;19836;55.812;37.560;2022-08-16T08:52:16;100206.75;;;28.49;36.69
33496;BME280;19836;55.812;37.560;2022-08-16T08:54:43;100200.34;;;28.67;36.74
33496;BME280;19836;55.812;37.560;2022-08-16T08:57:10;100202.47;;;28.83;36.42
33496;BME280;19836;55.812;37.560;2022-08-16T08:59:48;100199.69;;;28.92;36.32
33496;BME280;19836;55.812;37.560;2022-08-16T09:02:15;100200.69;;;28.91;35.98
33496;BME280;19836;55.812;37.560;2022-08-16T09:04:48;100203.84;;;28.96;36.14
33496;BME280;19836;55.812;37.560;2022-08-16T09:07:17;100206.06;;;29.02;36.17
33496;BME280;19836;55.812;37.560;2022-08-16T09:09:43;100207.47;;;29.16;36.19
33496;BME280;19836;55.812;37.560;2022-08-16T09:12:12;100205.78;;;29.32;36.18
33496;BME280;19836;55.812;37.560;2022-08-16T09:14:46;100205.00;;;29.67;35.64
33496;BME280;19836;55.812;37.560;2022-08-16T09:17:12;100201.47;;;30.87;34.36
33496;BME280;19836;55.812;37.560;2022-08-16T09:19:40;100198.34;;;31.91;32.54
33496;BME280;19836;55.812;37.560;2022-08-16T09:22:08;100197.69;;;32.45;31.71
33496;BME280;19836;55.812;37.560;2022-08-16T09:24:35;100207.31;;;33.37;30.32
33496;BME280;19836;55.812;37.560;2022-08-16T09:27:03;100206.84;;;33.02;29.45
33496;BME280;19836;55.812;37.560;2022-08-16T09:29:29;100199.59;;;32.53;30.11
33496;BME280;19836;55.812;37.560;2022-08-16T09:31:56;100201.06;;;33.19;29.71
33496;BME280;19836;55.812;37.560;2022-08-16T09:34:22;100206.50;;;35.02;28.11
33496;BME280;19836;55.812;37.560;2022-08-16T09:36:48;100196.91;;;35.34;27.14
33496;BME280;19836;55.812;37.560;2022-08-16T09:39:14;100201.50;;;35.85;26.71
33496;BME280;19836;55.812;37.560;2022-08-16T09:41:45;100206.34;;;36.54;25.54
33496;BME280;19836;55.812;37.560;2022-08-16T09:44:19;100199.59;;;37.52;24.84
33496;BME280;19836;55.812;37.560;2022-08-16T09:46:49;100197.59;;;37.80;23.95
33496;BME280;19836;55.812;37.560;2022-08-16T09:49:15;100201.19;;;38.14;23.85
33496;BME280;19836;55.812;37.560;2022-08-16T09:51:42;100199.09;;;38.36;23.66
33496;BME280;19836;55.812;37.560;2022-08-16T09:54:08;100205.22;;;38.91;21.98
33496;BME280;19836;55.812;37.560;2022-08-16T09:56:36;100199.50;;;38.33;21.97
33496;BME280;19836;55.812;37.560;2022-08-16T09:59:06;100196.34;;;39.01;21.78
33496;BME280;19836;55.812;37.560;2022-08-16T10:01:32;100193.38;;;39.79;21.06
33496;BME280;19836;55.812;37.560;2022-08-16T10:03:59;100189.97;;;40.52;20.38
33496;BME280;19836;55.812;37.560;2022-08-16T10:06:26;100192.28;;;40.86;19.55
33496;BME280;19836;55.812;37.560;2022-08-16T10:08:52;100190.06;;;41.19;19.04
33496;BME280;19836;55.812;37.560;2022-08-16T10:11:20;100186.38;;;41.18;18.74
33496;BME280;19836;55.812;37.560;2022-08-16T10:14:04;100184.19;;;41.20;18.77
33496;BME280;19836;55.812;37.560;2022-08-16T10:16:30;100180.78;;;41.12;18.90
33496;BME280;19836;55.812;37.560;2022-08-16T10:18:56;100195.19;;;41.04;18.72
33496;BME280;19836;55.812;37.560;2022-08-16T10:21:23;100191.88;;;41.07;18.50
33496;BME280;19836;55.812;37.560;2022-08-16T10:23:49;100180.59;;;41.31;18.25
33496;BME280;19836;55.812;37.560;2022-08-16T10:26:17;100176.34;;;41.83;17.96
33496;BME280;19836;55.812;37.560;2022-08-16T10:28:43;100195.66;;;41.97;17.76
33496;BME280;19836;55.812;37.560;2022-08-16T10:31:10;100187.41;;;42.14;17.53
33496;BME280;19836;55.812;37.560;2022-08-16T10:33:36;100179.13;;;42.19;17.64
33496;BME280;19836;55.812;37.560;2022-08-16T10:36:04;100179.13;;;42.19;17.69
33496;BME280;19836;55.812;37.560;2022-08-16T10:38:32;100187.13;;;42.63;17.28
33496;BME280;19836;55.812;37.560;2022-08-16T10:40:58;100179.31;;;42.47;17.38
33496;BME280;19836;55.812;37.560;2022-08-16T10:43:24;100188.50;;;41.23;17.84
33496;BME280;19836;55.812;37.560;2022-08-16T10:45:50;100181.94;;;41.29;18.03
33496;BME280;19836;55.812;37.560;2022-08-16T10:48:16;100167.16;;;42.17;17.92
33496;BME280;19836;55.812;37.560;2022-08-16T10:50:43;100181.28;;;43.22;17.24
33496;BME280;19836;55.812;37.560;2022-08-16T10:53:10;100171.38;;;43.54;16.79
33496;BME280;19836;55.812;37.560;2022-08-16T10:55:40;100173.88;;;43.67;16.76
33496;BME280;19836;55.812;37.560;2022-08-16T10:58:07;100172.19;;;44.06;16.59
33496;BME280;19836;55.812;37.560;2022-08-16T11:00:34;100169.88;;;44.14;16.55
33496;BME280;19836;55.812;37.560;2022-08-16T11:03:01;100171.63;;;43.92;16.21
33496;BME280;19836;55.812;37.560;2022-08-16T11:05:33;100175.56;;;41.58;17.82
33496;BME280;19836;55.812;37.560;2022-08-16T11:08:00;100168.94;;;40.85;18.52
33496;BME280;19836;55.812;37.560;2022-08-16T11:10:32;100167.88;;;41.47;18.37
33496;BME280;19836;55.812;37.560;2022-08-16T11:12:59;100159.44;;;42.83;17.68
33496;BME280;19836;55.812;37.560;2022-08-16T11:15:25;100164.09;;;43.58;16.82
33496;BME280;19836;55.812;37.560;2022-08-16T11:17:53;100159.59;;;43.46;16.42
33496;BME280;19836;55.812;37.560;2022-08-16T11:20:19;100143.78;;;42.16;17.38
33496;BME280;19836;55.812;37.560;2022-08-16T11:22:46;100145.22;;;41.60;17.91
33496;BME280;19836;55.812;37.560;2022-08-16T11:25:16;100150.38;;;42.40;17.86
33496;BME280;19836;55.812;37.560;2022-08-16T11:27:42;100148.94;;;43.13;17.10
33496;BME280;19836;55.812;37.560;2022-08-16T11:30:10;100145.66;;;43.79;16.63
33496;BME280;19836;55.812;37.560;2022-08-16T11:32:36;100140.59;;;44.20;15.92
33496;BME280;19836;55.812;37.560;2022-08-16T11:35:08;100143.16;;;44.22;16.04
33496;BME280;19836;55.812;37.560;2022-08-16T11:37:35;100146.28;;;44.37;15.94
33496;BME280;19836;55.812;37.560;2022-08-16T11:40:03;100143.63;;;42.41;16.79
33496;BME280;19836;55.812;37.560;2022-08-16T11:42:30;100141.78;;;41.58;17.46
33496;BME280;19836;55.812;37.560;2022-08-16T11:44:55;100146.94;;;42.90;16.86
33496;BME280;19836;55.812;37.560;2022-08-16T11:47:22;100140.72;;;43.74;16.28
33496;BME280;19836;55.812;37.560;2022-08-16T11:49:48;100134.88;;;44.48;15.99
33496;BME280;19836;55.812;37.560;2022-08-16T11:52:14;100136.25;;;45.28;15.31
33496;BME280;19836;55.812;37.560;2022-08-16T11:54:45;100137.69;;;44.93;15.33
33496;BME280;19836;55.812;37.560;2022-08-16T11:57:12;100128.38;;;45.30;15.40
33496;BME280;19836;55.812;37.560;2022-08-16T11:59:38;100128.34;;;45.68;15.03
33496;BME280;19836;55.812;37.560;2022-08-16T12:02:05;100128.84;;;46.08;14.92
33496;BME280;19836;55.812;37.560;2022-08-16T12:04:32;100121.06;;;46.20;14.39
33496;BME280;19836;55.812;37.560;2022-08-16T12:07:00;100124.25;;;46.29;14.64
33496;BME280;19836;55.812;37.560;2022-08-16T12:09:27;100111.13;;;45.96;14.44
33496;BME280;19836;55.812;37.560;2022-08-16T12:11:56;100117.16;;;43.80;15.57
33496;BME280;19836;55.812;37.560;2022-08-16T12:14:22;100119.00;;;42.36;16.88
33496;BME280;19836;55.812;37.560;2022-08-16T12:16:48;100107.00;;;42.52;16.80
33496;BME280;19836;55.812;37.560;2022-08-16T12:19:15;100108.69;;;42.42;16.93
33496;BME280;19836;55.812;37.560;2022-08-16T12:21:41;100114.16;;;42.66;16.86
33496;BME280;19836;55.812;37.560;2022-08-16T12:24:07;100106.72;;;41.00;17.67
33496;BME280;19836;55.812;37.560;2022-08-16T12:26:33;100103.44;;;41.03;18.01
33496;BME280;19836;55.812;37.560;2022-08-16T12:28:59;100099.50;;;41.76;17.71
33496;BME280;19836;55.812;37.560;2022-08-16T12:31:26;100108.44;;;43.08;16.63
33496;BME280;19836;55.812;37.560;2022-08-16T12:33:53;100106.25;;;42.04;16.90
33496;BME280;19836;55.812;37.560;2022-08-16T12:36:19;100099.91;;;42.09;17.08
33496;BME280;19836;55.812;37.560;2022-08-16T12:38:45;100100.00;;;41.55;17.60
33496;BME280;19836;55.812;37.560;2022-08-16T12:41:12;100097.94;;;41.62;17.49
33496;BME280;19836;55.812;37.560;2022-08-16T12:43:39;100088.00;;;39.76;18.31
33496;BME280;19836;55.812;37.560;2022-08-16T12:46:08;100085.53;;;38.33;19.77
33496;BME280;19836;55.812;37.560;2022-08-16T12:48:34;100092.16;;;38.00;19.99
33496;BME280;19836;55.812;37.560;2022-08-16T12:51:21;100085.94;;;37.44;20.73
33496;BME280;19836;55.812;37.560;2022-08-16T12:53:52;100081.41;;;38.75;20.23
33496;BME280;19836;55.812;37.560;2022-08-16T12:56:22;100084.63;;;40.30;18.74
33496;BME280;19836;55.812;37.560;2022-08-16T12:58:50;100091.03;;;41.94;17.64
33496;BME280;19836;55.812;37.560;2022-08-16T13:01:22;100096.16;;;42.90;16.77
33496;BME280;19836;55.812;37.560;2022-08-16T13:03:51;100085.69;;;42.56;16.63
33496;BME280;19836;55.812;37.560;2022-08-16T13:06:21;100088.28;;;40.55;17.63
33496;BME280;19836;55.812;37.560;2022-08-16T13:08:47;100086.91;;;39.27;18.88
33496;BME280;19836;55.812;37.560;2022-08-16T13:11:22;100075.34;;;39.04;19.08
33496;BME280;19836;55.812;37.560;2022-08-16T13:13:49;100082.41;;;37.76;20.22
33496;BME280;19836;55.812;37.560;2022-08-16T13:16:15;100074.22;;;36.53;21.47
33496;BME280;19836;55.812;37.560;2022-08-16T13:18:41;100073.50;;;35.61;22.38
33496;BME280;19836;55.812;37.560;2022-08-16T13:21:07;100068.28;;;35.22;23.00
33496;BME280;19836;55.812;37.560;2022-08-16T13:23:35;100071.88;;;35.02;23.28
33496;BME280;19836;55.812;37.560;2022-08-16T13:26:02;100053.84;;;35.19;23.35
33496;BME280;19836;55.812;37.560;2022-08-16T13:28:28;100060.97;;;35.92;22.99
33496;BME280;19836;55.812;37.560;2022-08-16T13:30:55;100066.97;;;36.93;22.20
33496;BME280;19836;55.812;37.560;2022-08-16T13:33:29;100056.00;;;36.64;22.08
33496;BME280;19836;55.812;37.560;2022-08-16T13:35:57;100059.56;;;35.61;22.83
33496;BME280;19836;55.812;37.560;2022-08-16T13:38:28;100066.31;;;34.87;23.71
33496;BME280;19836;55.812;37.560;2022-08-16T13:40:55;100062.41;;;34.30;24.53
33496;BME280;19836;55.812;37.560;2022-08-16T13:43:24;100064.53;;;34.06;24.65
33496;BME280;19836;55.812;37.560;2022-08-16T13:45:50;100061.63;;;33.77;25.18
33496;BME280;19836;55.812;37.560;2022-08-16T13:48:16;100048.56;;;33.32;26.05
33496;BME280;19836;55.812;37.560;2022-08-16T13:50:43;100047.47;;;33.03;26.31
33496;BME280;19836;55.812;37.560;2022-08-16T13:53:09;100048.97;;;32.75;26.70
33496;BME280;19836;55.812;37.560;2022-08-16T13:55:35;100051.03;;;32.73;26.92
33496;BME280;19836;55.812;37.560;2022-08-16T13:58:01;100053.31;;;32.69;26.97
33496;BME280;19836;55.812;37.560;2022-08-16T14:00:27;100052.03;;;34.02;26.15
33496;BME280;19836;55.812;37.560;2022-08-16T14:02:53;100037.50;;;35.45;24.66
33496;BME280;19836;55.812;37.560;2022-08-16T14:05:19;100034.72;;;34.95;24.82
33496;BME280;19836;55.812;37.560;2022-08-16T14:07:45;100038.06;;;34.10;25.46
33496;BME280;19836;55.812;37.560;2022-08-16T14:10:12;100035.09;;;33.44;26.46
33496;BME280;19836;55.812;37.560;2022-08-16T14:12:39;100034.63;;;33.02;27.16
33496;BME280;19836;55.812;37.560;2022-08-16T14:15:11;100031.78;;;32.87;27.54
33496;BME280;19836;55.812;37.560;2022-08-16T14:17:37;100024.56;;;33.01;27.23
33496;BME280;19836;55.812;37.560;2022-08-16T14:20:04;100026.72;;;32.91;27.40
33496;BME280;19836;55.812;37.560;2022-08-16T14:22:33;100023.34;;;32.65;27.76
33496;BME280;19836;55.812;37.560;2022-08-16T14:25:07;100029.47;;;32.44;27.87
33496;BME280;19836;55.812;37.560;2022-08-16T14:27:34;100021.69;;;32.32;28.00
33496;BME280;19836;55.812;37.560;2022-08-16T14:30:01;100022.41;;;32.10;28.26
33496;BME280;19836;55.812;37.560;2022-08-16T14:32:29;100020.88;;;31.91;28.26
33496;BME280;19836;55.812;37.560;2022-08-16T14:34:56;100025.91;;;31.80;28.61
33496;BME280;19836;55.812;37.560;2022-08-16T14:37:23;100030.72;;;31.70;28.76
33496;BME280;19836;55.812;37.560;2022-08-16T14:39:49;100023.94;;;31.64;28.79
33496;BME280;19836;55.812;37.560;2022-08-16T14:42:18;100021.72;;;31.60;28.89
33496;BME280;19836;55.812;37.560;2022-08-16T14:44:46;100024.66;;;31.58;29.27
33496;BME280;19836;55.812;37.560;2022-08-16T14:47:13;100014.25;;;31.52;29.02
33496;BME280;19836;55.812;37.560;2022-08-16T14:49:39;100026.69;;;31.40;29.49
33496;BME280;19836;55.812;37.560;2022-08-16T14:52:10;100015.78;;;31.31;29.43
33496;BME280;19836;55.812;37.560;2022-08-16T14:54:37;100016.13;;;31.27;29.40
33496;BME280;19836;55.812;37.560;2022-08-16T14:57:04;100023.06;;;31.24;29.79
33496;BME280;19836;55.812;37.560;2022-08-16T14:59:30;100017.13;;;31.18;29.61
33496;BME280;19836;55.812;37.560;2022-08-16T15:01:57;100016.94;;;31.12;30.13
33496;BME280;19836;55.812;37.560;2022-08-16T15:04:24;100014.13;;;31.04;30.16
33496;BME280;19836;55.812;37.560;2022-08-16T15:06:51;100012.19;;;30.88;30.57
33496;BME280;19836;55.812;37.560;2022-08-16T15:09:18;100015.25;;;30.77;30.77
33496;BME280;19836;55.812;37.560;2022-08-16T15:11:43;100011.59;;;30.69;31.30
33496;BME280;19836;55.812;37.560;2022-08-16T15:14:09;100017.25;;;30.59;31.46
33496;BME280;19836;55.812;37.560;2022-08-16T15:16:35;100007.88;;;30.52;31.76
33496;BME280;19836;55.812;37.560;2022-08-16T15:19:01;100012.31;;;30.45;32.11
33496;BME280;19836;55.812;37.560;2022-08-16T15:21:28;100006.59;;;30.39;32.06
33496;BME280;19836;55.812;37.560;2022-08-16T15:23:55;100005.38;;;30.33;32.52
33496;BME280;19836;55.812;37.560;2022-08-16T15:26:21;100012.91;;;30.23;32.67
33496;BME280;19836;55.812;37.560;2022-08-16T15:28:47;100008.34;;;30.14;32.69
33496;BME280;19836;55.812;37.560;2022-08-16T15:31:13;100004.13;;;30.10;32.54
33496;BME280;19836;55.812;37.560;2022-08-16T15:33:45;100000.53;;;30.10;32.78
33496;BME280;19836;55.812;37.560;2022-08-16T15:36:14;100001.09;;;30.13;32.64
33496;BME280;19836;55.812;37.560;2022-08-16T15:38:48;100006.13;;;30.18;32.53
33496;BME280;19836;55.812;37.560;2022-08-16T15:43:58;99998.25;;;30.31;32.28
33496;BME280;19836;55.812;37.560;2022-08-16T15:46:24;99994.63;;;30.30;32.43
33496;BME280;19836;55.812;37.560;2022-08-16T15:48:50;99995.97;;;30.26;32.59
33496;BME280;19836;55.812;37.560;2022-08-16T15:51:16;99998.41;;;30.29;32.65
33496;BME280;19836;55.812;37.560;2022-08-16T15:53:42;100001.19;;;30.29;32.72
33496;BME280;19836;55.812;37.560;2022-08-16T15:56:08;100010.00;;;30.25;32.72
33496;BME280;19836;55.812;37.560;2022-08-16T15:58:34;100005.28;;;30.17;32.79
33496;BME280;19836;55.812;37.560;2022-08-16T16:01:00;100007.06;;;30.09;32.92
33496;BME280;19836;55.812;37.560;2022-08-16T16:03:26;100014.44;;;30.00;33.30
33496;BME280;19836;55.812;37.560;2022-08-16T16:05:55;100016.78;;;29.87;33.31
33496;BME280;19836;55.812;37.560;2022-08-16T16:08:24;100014.25;;;29.76;33.76
33496;BME280;19836;55.812;37.560;2022-08-16T16:10:54;100017.28;;;29.65;33.74
33496;BME280;19836;55.812;37.560;2022-08-16T16:13:20;100011.72;;;29.57;34.19
33496;BME280;19836;55.812;37.560;2022-08-16T16:15:50;100016.22;;;29.49;34.38
33496;BME280;19836;55.812;37.560;2022-08-16T16:18:18;100012.53;;;29.40;34.80
33496;BME280;19836;55.812;37.560;2022-08-16T16:20:50;100022.78;;;29.30;34.86
33496;BME280;19836;55.812;37.560;2022-08-16T16:23:20;100018.94;;;29.23;35.04
33496;BME280;19836;55.812;37.560;2022-08-16T16:25:47;100015.06;;;29.16;35.30
33496;BME280;19836;55.812;37.560;2022-08-16T16:28:15;100019.47;;;29.09;35.27
33496;BME280;19836;55.812;37.560;2022-08-16T16:30:42;100011.81;;;29.03;35.68
33496;BME280;19836;55.812;37.560;2022-08-16T16:33:08;100016.94;;;28.98;35.94
33496;BME280;19836;55.812;37.560;2022-08-16T16:35:35;100011.13;;;28.92;35.89
33496;BME280;19836;55.812;37.560;2022-08-16T16:38:02;100014.69;;;28.84;35.74
33496;BME280;19836;55.812;37.560;2022-08-16T16:40:30;100017.31;;;28.76;36.08
33496;BME280;19836;55.812;37.560;2022-08-16T16:43:01;100017.94;;;28.70;36.19
33496;BME280;19836;55.812;37.560;2022-08-16T16:45:28;100021.31;;;28.64;36.67
33496;BME280;19836;55.812;37.560;2022-08-16T16:47:54;100025.56;;;28.59;36.86
33496;BME280;19836;55.812;37.560;2022-08-16T16:50:20;100017.19;;;28.51;36.88
33496;BME280;19836;55.812;37.560;2022-08-16T16:52:50;100023.31;;;28.45;37.34
33496;BME280;19836;55.812;37.560;2022-08-16T16:55:22;100021.16;;;28.39;37.34
33496;BME280;19836;55.812;37.560;2022-08-16T16:57:48;100024.47;;;28.33;37.31
33496;BME280;19836;55.812;37.560;2022-08-16T17:00:46;100020.16;;;28.30;37.49
33496;BME280;19836;55.812;37.560;2022-08-16T17:03:12;100026.25;;;28.24;37.47
33496;BME280;19836;55.812;37.560;2022-08-16T17:05:38;100024.81;;;28.20;37.58
33496;BME280;19836;55.812;37.560;2022-08-16T17:08:05;100025.44;;;28.14;37.91
33496;BME280;19836;55.812;37.560;2022-08-16T17:10:33;100036.78;;;28.11;37.78
33496;BME280;19836;55.812;37.560;2022-08-16T17:13:00;100036.50;;;28.05;38.17
33496;BME280;19836;55.812;37.560;2022-08-16T17:15:26;100030.84;;;27.97;38.15
33496;BME280;19836;55.812;37.560;2022-08-16T17:17:53;100037.66;;;27.93;38.31
33496;BME280;19836;55.812;37.560;2022-08-16T17:20:20;100034.34;;;27.89;38.61
33496;BME280;19836;55.812;37.560;2022-08-16T17:22:48;100036.41;;;27.87;38.62
33496;BME280;19836;55.812;37.560;2022-08-16T17:25:14;100035.66;;;27.85;38.96
33496;BME280;19836;55.812;37.560;2022-08-16T17:27:40;100028.88;;;27.80;38.89
33496;BME280;19836;55.812;37.560;2022-08-16T17:30:13;100036.53;;;27.76;39.23
33496;BME280;19836;55.812;37.560;2022-08-16T17:32:40;100037.84;;;27.72;39.26
33496;BME280;19836;55.812;37.560;2022-08-16T17:35:11;100036.25;;;27.70;39.53
33496;BME280;19836;55.812;37.560;2022-08-16T17:37:39;100031.34;;;27.64;39.64
33496;BME280;19836;55.812;37.560;2022-08-16T17:40:07;100031.03;;;27.57;39.85
33496;BME280;19836;55.812;37.560;2022-08-16T17:42:33;100033.94;;;27.56;40.07
33496;BME280;19836;55.812;37.560;2022-08-16T17:45:00;100038.13;;;27.50;40.10
33496;BME280;19836;55.812;37.560;2022-08-16T17:47:26;100034.22;;;27.43;40.24
33496;BME280;19836;55.812;37.560;2022-08-16T17:49:52;100030.16;;;27.38;40.69
33496;BME280;19836;55.812;37.560;2022-08-16T17:52:18;100031.31;;;27.35;40.83
33496;BME280;19836;55.812;37.560;2022-08-16T17:54:45;100035.09;;;27.34;40.71
33496;BME280;19836;55.812;37.560;2022-08-16T17:57:11;100033.94;;;27.27;40.88
33496;BME280;19836;55.812;37.560;2022-08-16T17:59:37;100035.38;;;27.22;41.24
33496;BME280;19836;55.812;37.560;2022-08-16T18:02:04;100036.53;;;27.19;41.49
33496;BME280;19836;55.812;37.560;2022-08-16T18:04:30;100039.56;;;27.16;41.56
33496;BME280;19836;55.812;37.560;2022-08-16T18:06:56;100037.97;;;27.14;41.64
33496;BME280;19836;55.812;37.560;2022-08-16T18:09:26;100033.88;;;27.08;41.56
33496;BME280;19836;55.812;37.560;2022-08-16T18:11:51;100030.69;;;27.03;41.77
33496;BME280;19836;55.812;37.560;2022-08-16T18:14:17;100036.47;;;27.00;41.85
33496;BME280;19836;55.812;37.560;2022-08-16T18:16:46;100034.88;;;26.98;41.91
33496;BME280;19836;55.812;37.560;2022-08-16T18:19:14;100035.19;;;26.95;41.98
33496;BME280;19836;55.812;37.560;2022-08-16T18:21:46;100030.97;;;26.91;42.24
33496;BME280;19836;55.812;37.560;2022-08-16T18:24:50;100037.03;;;26.85;42.24
33496;BME280;19836;55.812;37.560;2022-08-16T18:27:17;100033.09;;;26.78;42.50
33496;BME280;19836;55.812;37.560;2022-08-16T18:29:49;100032.81;;;26.71;42.73
33496;BME280;19836;55.812;37.560;2022-08-16T18:32:16;100039.00;;;26.64;42.85
33496;BME280;19836;55.812;37.560;2022-08-16T18:34:43;100036.06;;;26.56;42.94
33496;BME280;19836;55.812;37.560;2022-08-16T18:37:09;100028.50;;;26.48;43.12
33496;BME280;19836;55.812;37.560;2022-08-16T18:39:36;100024.72;;;26.40;43.45
33496;BME280;19836;55.812;37.560;2022-08-16T18:42:07;100028.16;;;26.32;43.54
33496;BME280;19836;55.812;37.560;2022-08-16T18:44:39;100025.97;;;26.26;43.91
33496;BME280;19836;55.812;37.560;2022-08-16T18:47:05;100018.22;;;26.20;43.91
33496;BME280;19836;55.812;37.560;2022-08-16T18:49:32;100027.03;;;26.14;44.11
33496;BME280;19836;55.812;37.560;2022-08-16T18:51:59;100024.59;;;26.11;44.57
33496;BME280;19836;55.812;37.560;2022-08-16T18:54:26;100030.34;;;26.08;44.60
33496;BME280;19836;55.812;37.560;2022-08-16T18:56:53;100026.88;;;26.06;44.57
33496;BME280;19836;55.812;37.560;2022-08-16T18:59:19;100024.50;;;26.02;44.61
33496;BME280;19836;55.812;37.560;2022-08-16T19:01:45;100013.66;;;26.00;44.69
33496;BME280;19836;55.812;37.560;2022-08-16T19:04:12;100016.69;;;25.97;44.85
33496;BME280;19836;55.812;37.560;2022-08-16T19:06:38;100020.59;;;25.95;44.87
33496;BME280;19836;55.812;37.560;2022-08-16T19:09:04;100020.00;;;25.91;44.83
33496;BME280;19836;55.812;37.560;2022-08-16T19:11:30;100019.34;;;25.88;45.10
33496;BME280;19836;55.812;37.560;2022-08-16T19:13:57;100019.50;;;25.86;45.19
33496;BME280;19836;55.812;37.560;2022-08-16T19:16:23;100018.59;;;25.86;45.26
33496;BME280;19836;55.812;37.560;2022-08-16T19:18:49;100018.03;;;25.82;45.38
33496;BME280;19836;55.812;37.560;2022-08-16T19:21:15;100010.31;;;25.76;45.58
33496;BME280;19836;55.812;37.560;2022-08-16T19:23:42;100014.47;;;25.71;45.64
33496;BME280;19836;55.812;37.560;2022-08-16T19:26:17;100010.13;;;25.68;45.93
33496;BME280;19836;55.812;37.560;2022-08-16T19:28:45;100014.13;;;25.64;45.87
33496;BME280;19836;55.812;37.560;2022-08-16T19:31:23;100017.88;;;25.63;45.84
33496;BME280;19836;55.812;37.560;2022-08-16T19:33:51;100016.41;;;25.59;45.95
33496;BME280;19836;55.812;37.560;2022-08-16T19:36:24;100019.56;;;25.55;46.23
33496;BME280;19836;55.812;37.560;2022-08-16T19:38:50;100018.09;;;25.51;46.19
33496;BME280;19836;55.812;37.560;2022-08-16T19:41:16;100013.00;;;25.46;46.24
33496;BME280;19836;55.812;37.560;2022-08-16T19:43:42;100007.28;;;25.38;46.58
33496;BME280;19836;55.812;37.560;2022-08-16T19:46:08;100014.03;;;25.34;46.76
33496;BME280;19836;55.812;37.560;2022-08-16T19:48:34;100027.75;;;25.34;46.98
33496;BME280;19836;55.812;37.560;2022-08-16T19:51:00;100016.06;;;25.32;47.06
33496;BME280;19836;55.812;37.560;2022-08-16T19:53:25;100018.81;;;25.32;47.16
33496;BME280;19836;55.812;37.560;2022-08-16T19:55:52;100017.94;;;25.32;47.18
33496;BME280;19836;55.812;37.560;2022-08-16T19:58:18;100022.81;;;25.28;47.07
33496;BME280;19836;55.812;37.560;2022-08-16T20:00:44;100024.84;;;25.26;46.87
33496;BME280;19836;55.812;37.560;2022-08-16T20:03:14;100023.31;;;25.22;47.35
33496;BME280;19836;55.812;37.560;2022-08-16T20:05:45;100020.81;;;25.19;47.40
33496;BME280;19836;55.812;37.560;2022-08-16T20:08:11;100010.84;;;25.18;47.23
33496;BME280;19836;55.812;37.560;2022-08-16T20:10:40;100010.13;;;25.16;47.64
33496;BME280;19836;55.812;37.560;2022-08-16T20:13:18;100016.63;;;25.15;47.54
33496;BME280;19836;55.812;37.560;2022-08-16T20:15:46;100009.38;;;25.14;47.24
33496;BME280;19836;55.812;37.560;2022-08-16T20:18:13;100007.63;;;25.13;47.31
33496;BME280;19836;55.812;37.560;2022-08-16T20:20:40;100007.63;;;25.13;47.42
33496;BME280;19836;55.812;37.560;2022-08-16T20:23:14;100013.41;;;25.10;47.54
33496;BME280;19836;55.812;37.560;2022-08-16T20:25:41;100015.88;;;25.13;47.43
33496;BME280;19836;55.812;37.560;2022-08-16T20:28:07;100016.88;;;25.12;47.50
33496;BME280;19836;55.812;37.560;2022-08-16T20:30:33;100015.38;;;25.08;47.67
33496;BME280;19836;55.812;37.560;2022-08-16T20:32:59;100007.16;;;25.08;47.65
33496;BME280;19836;55.812;37.560;2022-08-16T20:35:27;100018.13;;;25.08;47.58
33496;BME280;19836;55.812;37.560;2022-08-16T20:37:54;100022.59;;;25.09;47.81
33496;BME280;19836;55.812;37.560;2022-08-16T20:40:25;100023.72;;;25.07;47.76
33496;BME280;19836;55.812;37.560;2022-08-16T20:43:09;100021.47;;;25.12;47.85
33496;BME280;19836;55.812;37.560;2022-08-16T20:45:37;100021.34;;;25.13;47.70
33496;BME280;19836;55.812;37.560;2022-08-16T20:48:03;100018.59;;;25.13;47.66
33496;BME280;19836;55.812;37.560;2022-08-16T20:50:30;100024.09;;;25.13;47.63
33496;BME280;19836;55.812;37.560;2022-08-16T20:52:58;100024.38;;;25.10;47.61
33496;BME280;19836;55.812;37.560;2022-08-16T20:55:24;100022.59;;;25.09;47.66
33496;BME280;19836;55.812;37.560;2022-08-16T20:57:50;100027.34;;;25.07;47.54
33496;BME280;19836;55.812;37.560;2022-08-16T21:00:17;100027.59;;;25.04;47.58